Wednesday, February 10, 2016
10:59 UTC
  |  Log In   |  Register Free
Airport Search:

Lawrence Smith Memorial Airport
(KLRY)

Lawrence Smith Memorial Airport Diagram
No Airport Diagram Available

FAA data valid effective Dec 10 2015 - Feb 4 2016 (unless otherwise noted).

 
 
 
 
 
 
 
 
 
 
 
 
 
 
Current Aviation Weather for KLRY

Weather Summary


Current weather conditions are not available for LRY - The nearest NOAA weather station is at LXT, (21 nm NW from LRY)

The most recent METAR observation for LRY was updated at: 12:53 UTC
METAR for KLRY is not available. Closest METAR is for KLXT 21.0 nm SE
KLXT  (21.0 nm SE)   (most recent observation was updated at 10:09 UTC)
100953Z AUTO 24005KT 10SM OVC050 M06/M12 A3020 RMK AO2 SLP240 T10561117

KOJC  (23.3 nm SE)   (most recent observation was updated at 10:09 UTC)
100953Z 24003KT 10SM BKN050 OVC090 M06/M11 A3020 RMK AO2 SLP239 T10561111

TAF for KLRY is not available.
KIXD  (28.8 nm SE)   (most recent observation was updatred at 10:05 UTC)
100539Z 1006/1106 31010KT P6SM SCT250 FM101300 14008KT P6SM SCT030 BKN050 FM110100 04009KT P6SM SCT030


KMKC  (32.9 nm SE)   (most recent observation was updatred at 10:05 UTC)
100539Z 1006/1106 31007KT P6SM SCT250 FM101300 14007KT P6SM SCT030 BKN050 FM110100 05009KT P6SM SCT030


GlobalAir.com is loading additional information.
 Current Weather at LXT
22.0 F° (-5.6 C°)

Southwest winds at 5.8 mph
Pressure:
30.20 in
Humidity:
63%
Wind:
Southwest at 5.8 mph
Dew Point:
10.9 F° (-11.7 C°)
Visibility:
10.00 mi
LRY NOAA Radar




Find All Airport Services Find A Hotel Find A Rental Car Find A Golf Course Find A Restaurant $100 Hamburger



Airport Weather Forecast for KLRY

Translated METAR for KLXT (0953 UTC)
METAR:
KLXT 100953Z AUTO 24005KT 10SM OVC050 M06/M12 A3020 RMK AO2 SLP240 T10561117
Conditions at:
KLXT (Lee'S Summit Muni, MO) observed 0953 UTC 10 February 2016
Temperature:
-6°C (21.2°F)
Dewpoint:
-12°C (10.4°F) [RH = 62.5]
Pressure:
30.2 inches Hg (1022.7 mb)
pressure at sea level is 240 in Hg
Winds:
from the WSW (240 degrees) at 5.8 mph (5 knots: 2.6 m/s)
Visibility:
10 mile(s)
Ceiling:
5,000 feet AGL
Clouds:
Overcast Skies at 5,000 feet AGL
Remarks:
site is un-manned
site is automated and HAS a precipitation sensor

Translated TAF for KIXD (New Century Aircenter, KS) (0539 UTC)
TAF text:
KIXD 100539Z 1006/1106 31010KT P6SM SCT250
Forecast period:
Wednesday Feb 10 2016 06:00 UTC - Thursday Feb 11 2016 06:00 UTC
Forecast type:
FROM: standard forecast or significant change
Winds:
from the NW (310 degrees) at 11.5 mph (10 knots: 5.1 m/s)
Visibility:
6 or more mile(s) (9.7+ km)
Ceiling:
at least 12,000 feet AGL
Clouds:
Scattered Clouds at 25,000 feet AGL
Weather:
no significant weather observed at this time
TAF text:
FM101300 14008KT P6SM SCT030 BKN050
Forecast period:
Wednesday Feb 10 2016 13:00 UTC - Thursday Feb 11 2016 01:00 UTC
Forecast type:
FROM: standard forecast or significant change
Winds:
from the SE (140 degrees) at 9.2 mph (8 knots: 4.1 m/s)
Visibility:
6 or more mile(s) (9.7+ km)
Ceiling:
5,000 feet AGL
Clouds:
Scattered Clouds at 3,000 feet AGL
Broken Cloud Cover at 5,000 feet AGL
Weather:
no significant weather observed at this time
TAF text:
FM110100 04009KT P6SM SCT030
Forecast period:
Thursday Feb 11 2016 01:00 UTC - Thursday Feb 11 2016 06:00 UTC
Forecast type:
FROM: standard forecast or significant change
Winds:
from the NE (040 degrees) at 10.4 mph (9 knots: 4.6 m/s)
Visibility:
6 or more mile(s) (9.7+ km)
Ceiling:
at least 12,000 feet AGL
Clouds:
Scattered Clouds at 3,000 feet AGL
Weather:
no significant weather observed at this time
FBO's on the Field
FBO Company Facility Photos Services Transportation Aviation Fuel Prices: Prices include tax
Catering Weather Repair Courtesy Rental Type 100LL JetA JetA+ MOGAS 8087
 
City of Harrisonville

This FBO has not yet been rated
FS:Phillips 66
Last Updated: Dec-30
Login to update fuel prices
SS:
Contact City of HarrisonvilleMore FBO Information
 
Add another FBO Facility Photos Catering Weather Repair Courtesy Rental Type 100LL JetA JetA+ MOGAS 8087
Services Transportation Aviation Fuel Prices: Prices include tax


model-print
model-print
model-print
model-print